Time;durP1;ratioP1;P1;durP2;ratioP2;P2;SDS_P1;SDS_P2;PMS_P1;PMS_P2;Temp;Humidity;BMP_temperature;BMP_pressure;BME280_temperature;BME280_humidity;BME280_pressure;Samples;Min_cycle;Max_cycle;Signal;HPM_P1;HPM_P2
2022/05/28 00:01:26;;;;;;;7.53;3.47;;;14.70;9.90;;;;;;4983186;28;20435;-71
2022/05/28 00:03:57;;;;;;;13.90;3.20;;;14.70;9.80;;;;;;4973367;28;20203;-71
2022/05/28 00:06:24;;;;;;;12.50;3.80;;;14.60;11.70;;;;;;4974029;28;21037;-72
2022/05/28 00:08:50;;;;;;;10.97;3.60;;;14.60;11.70;;;;;;4989297;28;20501;-71
2022/05/28 00:11:29;;;;;;;9.07;3.23;;;14.50;11.70;;;;;;4976184;28;20509;-71
2022/05/28 00:13:55;;;;;;;9.27;2.80;;;14.40;12.70;;;;;;4972892;28;20207;-71
2022/05/28 00:16:20;;;;;;;10.43;3.50;;;14.30;12.30;;;;;;4966225;28;20830;-71
2022/05/28 00:18:47;;;;;;;16.10;3.00;;;14.30;13.90;;;;;;4960481;28;20186;-71
2022/05/28 00:21:13;;;;;;;9.70;3.10;;;14.20;11.70;;;;;;4967794;28;20685;-71
2022/05/28 00:23:40;;;;;;;8.40;2.80;;;14.00;12.40;;;;;;4980370;28;20438;-71
2022/05/28 00:26:06;;;;;;;11.97;3.47;;;14.00;14.10;;;;;;4978760;28;20465;-71
2022/05/28 00:28:32;;;;;;;7.70;3.37;;;14.00;13.50;;;;;;4987949;28;20505;-71
2022/05/28 00:31:00;;;;;;;7.83;2.83;;;13.90;13.40;;;;;;4967070;28;20454;-71
2022/05/28 00:33:26;;;;;;;9.07;2.97;;;13.90;11.80;;;;;;4971006;28;20729;-71
2022/05/28 00:35:51;;;;;;;8.60;3.60;;;13.90;14.40;;;;;;4962392;28;20490;-70
2022/05/28 00:38:17;;;;;;;10.60;3.00;;;13.80;14.40;;;;;;4977440;28;20187;-71
2022/05/28 00:40:51;;;;;;;6.90;2.97;;;13.80;13.00;;;;;;4971602;28;20175;-71
2022/05/28 00:43:17;;;;;;;8.20;2.80;;;13.80;14.40;;;;;;4975428;28;20202;-71
2022/05/28 00:45:45;;;;;;;11.13;3.27;;;13.70;15.30;;;;;;4971763;28;20447;-71
2022/05/28 00:48:22;;;;;;;7.50;2.70;;;13.60;14.90;;;;;;4977355;28;20187;-71
2022/05/28 00:50:48;;;;;;;7.23;2.67;;;13.60;15.20;;;;;;4970905;28;20585;-71
2022/05/28 00:53:14;;;;;;;8.70;2.90;;;13.60;15.20;;;;;;4976627;28;20434;-71
2022/05/28 00:55:39;;;;;;;9.27;2.87;;;13.50;14.70;;;;;;4986688;28;20453;-71
2022/05/28 00:58:07;;;;;;;7.43;2.77;;;13.40;17.70;;;;;;4977246;28;20263;-71
2022/05/28 01:00:34;;;;;;;7.00;3.00;;;13.40;17.20;;;;;;4977097;28;20172;-71
2022/05/28 01:03:08;;;;;;;6.90;2.57;;;13.40;15.90;;;;;;4971920;28;20453;-72
2022/05/28 01:06:02;;;;;;;9.73;3.13;;;13.30;16.20;;;;;;4967753;28;20825;-71
2022/05/28 01:08:38;;;;;;;8.17;2.60;;;13.30;15.60;;;;;;4966934;28;20431;-71
2022/05/28 01:11:07;;;;;;;10.67;3.03;;;13.20;16.60;;;;;;4974776;28;20479;-71
2022/05/28 01:13:48;;;;;;;7.60;3.10;;;13.10;19.60;;;;;;4976790;28;20521;-72
2022/05/28 01:16:43;;;;;;;13.47;3.00;;;13.10;20.80;;;;;;4951270;29;20539;-71
2022/05/28 01:19:35;;;;;;;6.93;2.60;;;13.00;19.70;;;;;;4972135;28;20419;-71
2022/05/28 01:22:38;;;;;;;7.90;3.03;;;13.00;20.60;;;;;;4963153;28;20438;-71
2022/05/28 01:25:18;;;;;;;7.77;3.30;;;13.00;20.60;;;;;;4968618;28;20455;-71
2022/05/28 01:27:49;;;;;;;9.87;3.40;;;13.00;22.10;;;;;;4960851;28;20423;-71
2022/05/28 01:30:17;;;;;;;9.03;3.00;;;12.90;20.90;;;;;;4975390;28;20433;-71
2022/05/28 01:32:47;;;;;;;10.13;3.17;;;12.90;20.20;;;;;;4975014;28;20457;-71
2022/05/28 01:35:15;;;;;;;8.03;2.73;;;12.80;22.70;;;;;;4977648;28;20457;-71
2022/05/28 01:37:43;;;;;;;10.40;3.20;;;12.70;19.00;;;;;;4982172;28;20561;-71
2022/05/28 01:40:10;;;;;;;8.23;2.73;;;12.70;22.30;;;;;;4977478;28;20983;-71
2022/05/28 01:42:39;;;;;;;7.63;2.70;;;12.70;21.50;;;;;;4978872;28;20446;-72
2022/05/28 01:45:06;;;;;;;10.03;3.17;;;12.60;19.90;;;;;;4973098;28;20525;-72
2022/05/28 01:47:34;;;;;;;13.60;3.13;;;12.70;19.10;;;;;;4974914;28;20415;-71
2022/05/28 01:50:01;;;;;;;13.97;3.13;;;12.70;18.40;;;;;;4968582;28;20522;-71
2022/05/28 01:52:28;;;;;;;5.00;2.73;;;12.60;20.70;;;;;;4972737;28;20525;-71
2022/05/28 01:54:56;;;;;;;7.27;2.50;;;12.50;20.80;;;;;;4974317;28;20537;-71
2022/05/28 01:57:21;;;;;;;8.27;2.80;;;12.50;21.20;;;;;;4964864;28;20460;-71
2022/05/28 01:59:47;;;;;;;15.93;2.70;;;12.50;21.40;;;;;;4974198;28;20801;-72
2022/05/28 02:02:15;;;;;;;7.20;2.23;;;12.50;21.70;;;;;;4986413;28;20346;-71
2022/05/28 02:04:43;;;;;;;9.00;2.60;;;12.50;21.50;;;;;;4969647;28;20207;-71
2022/05/28 02:07:09;;;;;;;6.50;2.83;;;12.50;21.90;;;;;;4977828;28;20450;-71
2022/05/28 02:09:39;;;;;;;7.97;2.10;;;12.50;21.90;;;;;;4975760;28;20937;-72
2022/05/28 02:12:27;;;;;;;8.60;2.53;;;12.40;19.70;;;;;;5003490;28;20190;-71
2022/05/28 02:15:26;;;;;;;6.43;2.60;;;12.40;22.20;;;;;;4977405;28;20451;-72
2022/05/28 02:18:01;;;;;;;10.23;2.60;;;12.20;24.90;;;;;;4975761;28;20439;-71
2022/05/28 02:20:45;;;;;;;5.93;2.57;;;12.10;24.20;;;;;;4983170;28;20463;-72
2022/05/28 02:23:19;;;;;;;10.13;2.70;;;12.00;27.10;;;;;;4982448;28;20493;-70
2022/05/28 02:25:49;;;;;;;9.17;2.43;;;11.90;27.20;;;;;;4970177;28;20482;-72
2022/05/28 02:28:15;;;;;;;9.10;3.33;;;11.80;26.50;;;;;;4966227;28;20779;-71
2022/05/28 02:31:01;;;;;;;11.00;2.50;;;11.80;33.20;;;;;;4958475;28;20428;-72
2022/05/28 02:33:28;;;;;;;9.90;3.47;;;11.80;34.80;;;;;;4970881;28;21021;-71
2022/05/28 02:35:54;;;;;;;8.90;2.70;;;11.70;32.70;;;;;;4970078;28;20474;-72
2022/05/28 02:38:19;;;;;;;6.43;2.53;;;11.60;38.60;;;;;;4973707;28;20522;-71
2022/05/28 02:40:45;;;;;;;11.60;3.70;;;11.50;39.10;;;;;;4976157;28;20509;-71
2022/05/28 02:43:11;;;;;;;6.70;2.57;;;11.40;39.10;;;;;;4967678;28;20605;-71
2022/05/28 02:45:37;;;;;;;4.23;2.40;;;11.20;38.90;;;;;;4975269;28;20192;-71
2022/05/28 02:48:03;;;;;;;9.30;2.70;;;11.10;38.80;;;;;;4970488;28;20897;-71
2022/05/28 02:50:29;;;;;;;8.13;2.47;;;11.00;39.00;;;;;;4973081;28;20466;-71
2022/05/28 02:52:55;;;;;;;8.50;2.60;;;10.90;38.80;;;;;;4968130;28;20431;-71
2022/05/28 02:55:21;;;;;;;9.00;2.90;;;10.90;38.70;;;;;;4973754;28;20290;-71
2022/05/28 02:57:47;;;;;;;7.93;2.63;;;10.90;38.70;;;;;;4965423;28;20562;-71
2022/05/28 03:00:14;;;;;;;5.73;2.50;;;10.80;38.70;;;;;;4988390;28;20538;-71
2022/05/28 03:02:41;;;;;;;6.20;2.90;;;10.80;38.60;;;;;;4970400;28;20239;-72
2022/05/28 03:05:07;;;;;;;5.13;2.60;;;10.70;41.30;;;;;;4974378;28;20557;-71
2022/05/28 03:07:32;;;;;;;4.23;2.30;;;10.60;40.50;;;;;;4975296;28;20506;-71
2022/05/28 03:09:58;;;;;;;6.10;2.70;;;10.40;50.00;;;;;;4967579;28;20862;-71
2022/05/28 03:12:23;;;;;;;11.83;2.67;;;10.30;52.10;;;;;;4972281;28;20187;-70
2022/05/28 03:14:49;;;;;;;7.60;3.13;;;10.20;54.50;;;;;;4974905;28;20206;-70
2022/05/28 03:17:14;;;;;;;8.10;2.90;;;10.10;56.10;;;;;;4977380;28;20257;-70
2022/05/28 03:19:40;;;;;;;9.70;2.80;;;10.00;60.70;;;;;;4966963;28;20218;-71
2022/05/28 03:22:06;;;;;;;5.27;2.50;;;9.90;61.20;;;;;;4974228;28;20168;-70
2022/05/28 03:24:31;;;;;;;6.70;2.37;;;9.90;60.00;;;;;;4970954;28;20208;-71
2022/05/28 03:26:57;;;;;;;15.50;3.50;;;9.80;60.60;;;;;;4952784;28;20164;-71
2022/05/28 03:29:24;;;;;;;9.70;2.83;;;9.80;64.10;;;;;;4973741;28;20171;-71
2022/05/28 03:31:50;;;;;;;8.97;2.60;;;9.80;64.20;;;;;;4969857;28;20521;-70
2022/05/28 03:34:16;;;;;;;7.17;2.53;;;9.80;67.60;;;;;;4974978;28;20478;-70
2022/05/28 03:36:41;;;;;;;6.50;2.80;;;9.70;65.30;;;;;;4976288;28;20446;-70
2022/05/28 03:39:07;;;;;;;5.10;2.77;;;9.70;66.50;;;;;;4971797;28;20170;-70
2022/05/28 03:41:33;;;;;;;6.47;2.40;;;9.70;70.10;;;;;;4971094;28;20176;-70
2022/05/28 03:43:59;;;;;;;13.83;3.10;;;9.70;68.00;;;;;;4971006;28;20235;-70
2022/05/28 03:46:30;;;;;;;4.93;2.40;;;9.60;67.90;;;;;;4972289;28;20435;-70
2022/05/28 03:48:59;;;;;;;7.53;3.20;;;9.60;65.60;;;;;;4970176;28;20442;-71
2022/05/28 03:51:25;;;;;;;7.70;2.80;;;9.60;68.80;;;;;;4967638;28;20994;-71
2022/05/28 03:53:51;;;;;;;12.73;2.67;;;9.60;73.00;;;;;;4995746;28;20458;-72
2022/05/28 03:56:17;;;;;;;8.13;2.63;;;9.70;72.00;;;;;;4964407;28;20228;-71
2022/05/28 03:58:43;;;;;;;7.00;2.63;;;9.70;71.50;;;;;;4966152;28;20435;-71
2022/05/28 04:01:08;;;;;;;10.40;3.30;;;9.70;76.40;;;;;;4973793;28;20415;-70
2022/05/28 04:03:35;;;;;;;5.73;2.57;;;9.80;75.10;;;;;;4966937;28;20892;-71
2022/05/28 04:06:02;;;;;;;11.93;3.40;;;9.80;74.20;;;;;;4972775;28;20725;-70
2022/05/28 04:08:27;;;;;;;12.00;2.93;;;9.90;74.60;;;;;;4975017;28;20493;-71
2022/05/28 04:10:53;;;;;;;9.17;2.70;;;9.90;69.50;;;;;;4968585;28;20431;-70
2022/05/28 04:13:19;;;;;;;5.13;2.70;;;9.90;69.00;;;;;;4972956;28;20639;-70
2022/05/28 04:15:44;;;;;;;6.77;2.20;;;9.90;70.50;;;;;;4970059;28;20239;-70
2022/05/28 04:18:11;;;;;;;6.70;2.67;;;9.90;71.00;;;;;;4972153;28;20175;-70
2022/05/28 04:20:37;;;;;;;8.10;2.37;;;10.00;68.40;;;;;;4970282;28;20184;-71
2022/05/28 04:23:02;;;;;;;8.47;3.70;;;10.00;71.10;;;;;;4969502;28;20834;-70
2022/05/28 04:25:28;;;;;;;7.60;2.83;;;10.10;70.50;;;;;;4971575;28;20251;-71
2022/05/28 04:27:53;;;;;;;9.97;3.50;;;10.20;70.90;;;;;;4970321;28;20259;-71
2022/05/28 04:30:19;;;;;;;7.83;2.90;;;10.30;67.60;;;;;;4980764;28;20690;-72
2022/05/28 04:32:45;;;;;;;7.03;2.87;;;10.40;67.20;;;;;;4974965;28;20606;-70
2022/05/28 04:35:11;;;;;;;8.03;2.67;;;10.50;67.80;;;;;;4976860;28;20538;-71
2022/05/28 04:37:36;;;;;;;7.17;2.60;;;10.60;61.60;;;;;;4978479;28;20985;-71
2022/05/28 04:40:02;;;;;;;5.77;2.43;;;10.70;63.40;;;;;;4970764;28;20180;-70
2022/05/28 04:42:28;;;;;;;9.27;2.63;;;10.70;63.10;;;;;;4970908;28;20263;-70
2022/05/28 04:44:56;;;;;;;6.10;2.33;;;10.90;61.20;;;;;;4976888;28;20542;-70
2022/05/28 04:47:22;;;;;;;12.63;2.93;;;10.90;60.00;;;;;;4976996;28;20259;-71
2022/05/28 04:49:47;;;;;;;6.20;2.70;;;11.00;60.90;;;;;;4971725;28;20525;-70
2022/05/28 04:52:13;;;;;;;11.30;3.07;;;11.10;62.90;;;;;;4986597;28;20543;-71
2022/05/28 04:54:38;;;;;;;8.27;2.80;;;11.20;55.00;;;;;;4976610;28;20208;-70
2022/05/28 04:57:04;;;;;;;4.77;2.70;;;11.30;57.00;;;;;;4970844;28;20794;-70
2022/05/28 04:59:30;;;;;;;4.50;2.67;;;11.40;54.30;;;;;;4985966;28;20656;-70
2022/05/28 05:01:55;;;;;;;8.50;2.60;;;11.40;51.60;;;;;;4972069;28;20224;-71
2022/05/28 05:04:21;;;;;;;12.37;3.23;;;11.40;49.00;;;;;;4966435;28;20303;-71
2022/05/28 05:06:46;;;;;;;11.63;3.00;;;11.50;50.30;;;;;;4978484;28;20209;-71
2022/05/28 05:09:11;;;;;;;8.97;3.00;;;11.50;52.40;;;;;;4970103;28;20306;-72
2022/05/28 05:11:37;;;;;;;6.80;2.60;;;11.60;48.70;;;;;;4967594;28;20251;-71
2022/05/28 05:14:03;;;;;;;8.90;2.70;;;11.70;51.80;;;;;;4968811;28;20207;-71
2022/05/28 05:16:28;;;;;;;8.80;2.90;;;11.70;49.70;;;;;;4969558;28;20242;-71
2022/05/28 05:18:54;;;;;;;9.00;2.73;;;11.80;48.80;;;;;;4969195;28;20192;-71
2022/05/28 05:21:19;;;;;;;10.03;3.00;;;11.90;39.60;;;;;;4970052;28;20188;-71
2022/05/28 05:23:45;;;;;;;8.43;2.80;;;12.00;46.10;;;;;;4977898;28;20341;-71
2022/05/28 05:26:16;;;;;;;8.07;2.70;;;12.10;39.80;;;;;;4962722;28;20172;-71
2022/05/28 05:28:42;;;;;;;6.47;2.80;;;12.10;40.30;;;;;;4968748;28;20194;-71
2022/05/28 05:31:07;;;;;;;6.97;2.70;;;12.20;45.50;;;;;;4973800;28;20418;-71
2022/05/28 05:33:33;;;;;;;8.07;3.20;;;12.30;45.40;;;;;;4982900;28;20646;-72
2022/05/28 05:35:58;;;;;;;15.27;2.90;;;12.30;45.10;;;;;;4967009;28;20466;-72
2022/05/28 05:38:24;;;;;;;12.97;4.07;;;12.40;42.70;;;;;;4964242;28;20194;-73
2022/05/28 05:40:51;;;;;;;9.43;2.60;;;12.50;42.80;;;;;;4966935;28;20191;-72
2022/05/28 05:43:17;;;;;;;6.33;2.43;;;12.60;40.10;;;;;;4981853;28;20238;-71
2022/05/28 05:45:50;;;;;;;10.60;2.77;;;12.60;40.10;;;;;;4990151;28;20921;-71
2022/05/28 05:48:15;;;;;;;7.23;2.50;;;12.60;40.30;;;;;;4971428;28;20439;-71
2022/05/28 05:50:41;;;;;;;11.10;2.40;;;12.70;40.10;;;;;;4985473;28;20485;-72
2022/05/28 05:53:08;;;;;;;5.57;2.23;;;12.80;40.10;;;;;;4984893;28;20175;-72
2022/05/28 05:55:33;;;;;;;10.73;2.60;;;12.90;40.40;;;;;;4974200;28;20220;-72
2022/05/28 05:57:59;;;;;;;9.17;2.17;;;13.10;40.40;;;;;;4970456;28;20557;-72
2022/05/28 06:00:25;;;;;;;7.50;2.10;;;13.30;35.70;;;;;;4970766;28;20183;-72
2022/05/28 06:02:50;;;;;;;5.27;2.43;;;13.30;32.40;;;;;;4969974;28;20168;-72
2022/05/28 06:05:16;;;;;;;4.60;2.13;;;13.20;33.60;;;;;;4970453;28;20606;-72
2022/05/28 06:07:41;;;;;;;7.13;2.13;;;13.20;32.50;;;;;;4968994;28;20195;-72
2022/05/28 06:10:09;;;;;;;8.30;2.43;;;13.20;29.90;;;;;;4971298;28;20176;-71
2022/05/28 06:12:34;;;;;;;6.87;2.30;;;13.30;34.20;;;;;;4968278;28;20270;-71
2022/05/28 06:15:00;;;;;;;7.10;2.40;;;13.40;32.70;;;;;;4970352;28;20561;-72
2022/05/28 06:17:25;;;;;;;6.20;2.23;;;13.40;28.60;;;;;;4970781;28;20665;-71
2022/05/28 06:19:51;;;;;;;9.13;2.13;;;13.50;28.90;;;;;;4961787;28;20169;-71
2022/05/28 06:22:16;;;;;;;7.20;2.17;;;13.60;27.90;;;;;;4969989;28;20176;-72
2022/05/28 06:24:42;;;;;;;9.77;1.97;;;13.70;24.60;;;;;;4969049;28;20220;-72
2022/05/28 06:27:07;;;;;;;4.70;2.10;;;13.80;23.90;;;;;;4970171;28;20188;-72
2022/05/28 06:29:33;;;;;;;5.50;2.10;;;13.90;23.70;;;;;;4968382;28;20180;-71
2022/05/28 06:31:58;;;;;;;3.57;1.90;;;13.90;24.20;;;;;;4977455;28;20251;-71
2022/05/28 06:34:24;;;;;;;5.27;2.13;;;14.00;25.50;;;;;;4984170;28;20202;-71
2022/05/28 06:36:49;;;;;;;3.53;1.60;;;14.20;20.80;;;;;;4973645;28;20721;-71
2022/05/28 06:39:15;;;;;;;5.97;2.00;;;14.20;20.60;;;;;;4970206;28;20175;-72
2022/05/28 06:41:41;;;;;;;7.70;2.67;;;14.30;19.80;;;;;;4969671;28;20182;-70
2022/05/28 06:44:07;;;;;;;8.07;2.40;;;14.40;19.70;;;;;;4969971;28;20179;-73
2022/05/28 06:46:32;;;;;;;7.87;2.10;;;14.60;17.60;;;;;;4969786;28;20434;-71
2022/05/28 06:48:58;;;;;;;4.10;2.00;;;14.70;18.30;;;;;;4966696;28;20657;-72
2022/05/28 06:51:23;;;;;;;5.90;2.33;;;14.80;15.10;;;;;;4963525;28;20192;-72
2022/05/28 06:53:50;;;;;;;6.47;2.27;;;15.00;12.70;;;;;;4970256;28;20262;-71
2022/05/28 06:56:17;;;;;;;8.67;2.10;;;15.20;10.70;;;;;;4969220;28;20200;-72
2022/05/28 06:58:45;;;;;;;10.70;3.50;;;15.30;9.80;;;;;;4969236;28;20506;-72
2022/05/28 07:01:13;;;;;;;6.07;2.13;;;15.40;6.50;;;;;;4967570;28;20416;-71
2022/05/28 07:03:40;;;;;;;8.33;1.93;;;15.70;1.00;;;;;;4968981;28;20763;-72
2022/05/28 07:06:06;;;;;;;5.50;2.53;;;15.80;3.30;;;;;;4969384;28;20426;-72
2022/05/28 07:08:31;;;;;;;7.73;2.23;;;16.10;1.60;;;;;;4969626;28;20507;-71
2022/05/28 07:10:59;;;;;;;6.03;2.23;;;16.40;1.00;;;;;;4967577;28;20749;-72
2022/05/28 07:13:26;;;;;;;6.37;2.33;;;16.70;1.00;;;;;;4969113;28;20207;-71
2022/05/28 07:15:52;;;;;;;5.13;1.90;;;16.80;1.00;;;;;;4969214;28;20428;-70
2022/05/28 07:18:18;;;;;;;10.57;2.37;;;17.00;1.00;;;;;;4968150;28;20438;-72
2022/05/28 07:20:44;;;;;;;7.80;2.00;;;17.10;1.00;;;;;;4968874;28;20168;-72
2022/05/28 07:23:13;;;;;;;4.83;1.97;;;17.10;1.00;;;;;;4967925;28;20481;-72
2022/05/28 07:25:39;;;;;;;6.23;2.10;;;17.20;1.00;;;;;;4969194;28;20239;-72
2022/05/28 07:28:24;;;;;;;7.17;2.37;;;17.70;1.00;;;;;;4968819;28;20426;-72
2022/05/28 07:30:59;;;;;;;4.63;2.40;;;17.20;1.00;;;;;;4967513;28;20458;-72
2022/05/28 07:33:26;;;;;;;7.30;2.43;;;17.30;1.00;;;;;;4968691;28;20413;-72
2022/05/28 07:35:53;;;;;;;10.20;3.40;;;17.80;1.00;;;;;;4968760;28;20412;-72
2022/05/28 07:38:19;;;;;;;10.10;3.10;;;18.20;1.00;;;;;;4969377;28;20412;-72
2022/05/28 07:40:45;;;;;;;8.70;2.50;;;18.50;1.00;;;;;;4969472;28;20458;-72
2022/05/28 07:43:11;;;;;;;5.43;2.27;;;19.10;1.00;;;;;;4968577;28;20218;-71
2022/05/28 07:45:39;;;;;;;6.77;2.53;;;19.30;1.00;;;;;;4969200;28;20188;-71
2022/05/28 07:48:06;;;;;;;5.37;1.90;;;19.50;1.00;;;;;;4964150;28;20190;-72
2022/05/28 07:50:32;;;;;;;9.03;2.40;;;19.80;1.00;;;;;;4957698;28;20443;-72
2022/05/28 07:52:58;;;;;;;9.30;2.20;;;19.60;1.00;;;;;;4968134;28;20442;-72
2022/05/28 07:55:23;;;;;;;8.17;2.47;;;19.00;1.00;;;;;;4983965;28;20772;-72
2022/05/28 07:57:49;;;;;;;6.87;2.57;;;18.80;1.00;;;;;;4968723;28;20467;-72
2022/05/28 08:00:15;;;;;;;5.90;2.77;;;19.00;1.00;;;;;;4971597;28;20175;-72
2022/05/28 08:02:41;;;;;;;9.57;2.80;;;19.20;1.00;;;;;;4967963;28;20187;-72
2022/05/28 08:05:07;;;;;;;7.13;2.77;;;19.30;1.00;;;;;;4967890;28;20516;-72
2022/05/28 08:07:32;;;;;;;7.60;2.67;;;19.30;1.00;;;;;;4968655;28;20176;-72
2022/05/28 08:09:58;;;;;;;14.00;3.63;;;19.30;1.00;;;;;;4969610;28;20727;-72
2022/05/28 08:12:24;;;;;;;7.67;2.50;;;19.40;1.00;;;;;;4972772;28;20495;-73
2022/05/28 08:14:50;;;;;;;7.90;2.40;;;19.40;1.00;;;;;;4971736;28;20211;-72
2022/05/28 08:17:17;;;;;;;8.37;2.70;;;19.50;1.00;;;;;;4977675;28;20502;-72
2022/05/28 08:19:43;;;;;;;7.07;2.40;;;19.80;1.00;;;;;;4964348;28;20463;-72
2022/05/28 08:24:53;;;;;;;8.20;2.30;;;20.20;1.00;;;;;;4972207;28;20538;-73
2022/05/28 08:27:18;;;;;;;8.93;2.40;;;20.00;1.00;;;;;;4969790;28;20454;-76
2022/05/28 08:29:44;;;;;;;14.73;5.23;;;19.70;1.00;;;;;;4971003;28;20179;-73
2022/05/28 08:32:09;;;;;;;6.07;2.50;;;19.30;1.00;;;;;;4967948;28;20188;-76
2022/05/28 08:34:35;;;;;;;3.90;2.00;;;19.40;1.00;;;;;;4969434;28;20214;-73
2022/05/28 08:37:00;;;;;;;8.43;3.00;;;19.50;1.00;;;;;;4981715;28;20202;-72
2022/05/28 08:39:26;;;;;;;6.70;2.27;;;20.00;1.00;;;;;;4984009;28;20187;-73
2022/05/28 08:41:59;;;;;;;7.47;2.33;;;20.20;1.00;;;;;;4972990;28;20697;-73
2022/05/28 08:44:27;;;;;;;9.00;2.30;;;20.70;1.00;;;;;;4982752;28;20215;-73
2022/05/28 08:46:56;;;;;;;6.43;2.40;;;21.10;1.00;;;;;;4973841;28;20422;-74
2022/05/28 08:49:27;;;;;;;7.17;2.20;;;21.50;1.00;;;;;;4972034;28;20414;-73
2022/05/28 08:51:58;;;;;;;4.90;2.50;;;21.80;1.00;;;;;;4972638;28;20557;-73
2022/05/28 08:54:30;;;;;;;6.70;2.80;;;21.20;1.00;;;;;;4971570;28;20512;-74
2022/05/28 08:57:01;;;;;;;4.10;1.93;;;21.10;1.00;;;;;;4973169;28;21046;-74
2022/05/28 08:59:38;;;;;;;5.87;2.10;;;22.20;1.00;;;;;;4970709;28;20493;-73
2022/05/28 09:02:16;;;;;;;8.07;2.27;;;23.40;1.00;;;;;;4972822;28;20410;-73
2022/05/28 09:04:43;;;;;;;6.40;2.43;;;25.00;1.00;;;;;;4971600;28;20454;-74
2022/05/28 09:07:12;;;;;;;5.03;2.13;;;26.20;1.00;;;;;;4972402;28;20449;-73
2022/05/28 09:09:44;;;;;;;7.53;2.43;;;27.10;1.00;;;;;;4970600;28;20419;-73
2022/05/28 09:12:19;;;;;;;5.50;2.40;;;27.30;1.00;;;;;;4958793;28;20533;-73
2022/05/28 09:14:44;;;;;;;5.77;2.53;;;27.20;1.00;;;;;;4953590;28;20298;-74
2022/05/28 09:17:24;;;;;;;4.40;2.13;;;26.20;1.00;;;;;;4972188;28;20282;-75
2022/05/28 09:19:51;;;;;;;7.47;2.47;;;25.10;1.00;;;;;;4969336;28;20612;-74
2022/05/28 09:22:16;;;;;;;6.43;2.20;;;26.00;1.00;;;;;;4970603;28;20357;-73
2022/05/28 09:24:42;;;;;;;7.77;2.53;;;27.10;1.00;;;;;;4966957;28;20297;-74
2022/05/28 09:27:23;;;;;;;3.97;1.80;;;28.30;1.00;;;;;;4970787;28;20314;-72
2022/05/28 09:30:03;;;;;;;6.27;2.20;;;28.10;1.00;;;;;;4970756;28;20190;-71
2022/05/28 09:32:40;;;;;;;5.10;2.20;;;26.30;1.00;;;;;;4970305;28;20187;-73
2022/05/28 09:35:14;;;;;;;11.50;2.10;;;25.20;1.00;;;;;;4966469;28;20203;-72
2022/05/28 09:37:45;;;;;;;6.80;2.13;;;24.00;1.00;;;;;;4960045;28;20289;-72
2022/05/28 09:40:17;;;;;;;7.10;2.13;;;23.00;1.00;;;;;;4963910;28;20419;-73
2022/05/28 09:42:49;;;;;;;7.70;2.00;;;22.10;1.00;;;;;;4970182;28;20482;-72
2022/05/28 09:45:25;;;;;;;6.77;2.40;;;21.80;1.00;;;;;;4966346;28;20881;-73
2022/05/28 09:47:52;;;;;;;6.23;2.47;;;21.60;1.00;;;;;;4980159;28;20493;-73
2022/05/28 09:50:30;;;;;;;6.50;2.30;;;21.30;1.00;;;;;;4970709;28;20438;-73
2022/05/28 09:56:03;;;;;;;5.93;2.17;;;21.30;1.00;;;;;;4976404;28;20881;-73
2022/05/28 09:58:36;;;;;;;7.20;2.67;;;23.20;1.00;;;;;;4970867;28;20427;-73
2022/05/28 10:01:18;;;;;;;9.83;2.23;;;25.10;1.00;;;;;;4970162;28;20477;-74
2022/05/28 10:06:30;;;;;;;7.70;2.30;;;26.40;1.00;;;;;;4963963;28;20437;-73
2022/05/28 10:08:57;;;;;;;6.80;2.20;;;26.20;1.00;;;;;;4971331;28;20513;-74
2022/05/28 10:11:23;;;;;;;5.73;2.20;;;26.60;1.00;;;;;;4974992;28;20596;-73
2022/05/28 10:13:52;;;;;;;5.43;2.40;;;26.30;1.00;;;;;;4975838;28;20231;-73
2022/05/28 10:16:22;;;;;;;6.37;2.60;;;25.40;1.00;;;;;;4966992;28;20199;-73
2022/05/28 10:18:58;;;;;;;6.03;2.00;;;24.80;1.00;;;;;;4960626;28;20247;-73
2022/05/28 10:21:35;;;;;;;8.77;2.70;;;25.30;1.00;;;;;;4966860;28;20530;-76
2022/05/28 10:24:04;;;;;;;8.57;2.00;;;25.60;1.00;;;;;;4971510;28;20430;-73
2022/05/28 10:26:39;;;;;;;4.57;2.00;;;25.20;1.00;;;;;;4969002;28;20423;-73
2022/05/28 10:29:14;;;;;;;6.33;1.93;;;24.50;1.00;;;;;;4970347;28;20433;-73
2022/05/28 10:31:40;;;;;;;4.80;2.10;;;24.00;1.00;;;;;;4966307;28;20960;-72
2022/05/28 10:34:07;;;;;;;7.70;2.30;;;23.70;1.00;;;;;;4974930;28;20442;-73
2022/05/28 10:36:35;;;;;;;9.90;2.47;;;23.00;1.00;;;;;;4969398;28;20199;-73
2022/05/28 10:39:10;;;;;;;14.00;2.17;;;22.50;1.00;;;;;;4970520;28;20497;-73
2022/05/28 10:41:37;;;;;;;6.13;1.73;;;24.00;1.00;;;;;;4969386;28;20426;-73
2022/05/28 10:44:04;;;;;;;8.67;2.73;;;26.70;1.00;;;;;;4968549;28;20438;-73
2022/05/28 10:47:04;;;;;;;8.30;2.10;;;28.20;1.00;;;;;;4969465;28;20497;-73
2022/05/28 10:49:44;;;;;;;8.67;2.50;;;29.10;1.00;;;;;;4968923;28;20397;-74
2022/05/28 10:52:28;;;;;;;6.77;2.00;;;28.20;1.00;;;;;;4966233;28;20182;-74
2022/05/28 10:55:10;;;;;;;5.37;2.00;;;27.40;1.00;;;;;;4969883;28;20195;-74
2022/05/28 10:58:06;;;;;;;4.07;1.50;;;26.80;1.00;;;;;;4965981;28;20581;-74
2022/05/28 11:00:57;;;;;;;4.13;1.70;;;25.90;1.00;;;;;;4965863;28;20538;-73
2022/05/28 11:03:40;;;;;;;6.23;1.80;;;25.20;1.00;;;;;;4956706;28;20172;-72
2022/05/28 11:06:24;;;;;;;3.63;1.80;;;25.30;1.00;;;;;;4957565;28;21083;-73
2022/05/28 11:09:12;;;;;;;4.10;1.70;;;27.40;1.00;;;;;;4955929;28;20262;-72
2022/05/28 11:12:26;;;;;;;4.57;1.97;;;28.20;1.00;;;;;;4957929;28;20331;-73
2022/05/28 11:15:11;;;;;;;4.70;1.80;;;28.80;1.00;;;;;;4967661;28;20416;-72
2022/05/28 11:18:11;;;;;;;4.93;1.60;;;29.40;1.00;;;;;;4968302;28;20235;-73
2022/05/28 11:20:50;;;;;;;7.57;2.03;;;31.00;1.00;;;;;;4969804;28;20171;-73
2022/05/28 11:23:26;;;;;;;6.18;1.65;;;32.00;1.00;;;;;;4960192;28;20319;-74
2022/05/28 11:26:26;;;;;;;5.75;1.80;;;32.10;1.00;;;;;;4957299;28;20175;-74
2022/05/28 11:29:22;;;;;;;3.83;1.67;;;32.40;1.00;;;;;;4969700;28;20176;-75
2022/05/28 11:31:53;;;;;;;4.20;1.50;;;32.40;1.00;;;;;;4961368;28;20179;-75
2022/05/28 11:34:33;;;;;;;4.63;1.60;;;33.10;1.00;;;;;;4972120;28;20199;-74
2022/05/28 11:37:04;;;;;;;5.57;1.70;;;33.70;1.00;;;;;;4976623;28;20213;-74
2022/05/28 11:39:41;;;;;;;3.90;1.75;;;32.70;1.00;;;;;;4969106;28;20708;-73
2022/05/28 11:42:55;;;;;;;5.72;1.75;;;32.20;1.00;;;;;;4973437;28;20214;-74
2022/05/28 11:45:28;;;;;;;4.07;1.80;;;32.60;1.00;;;;;;4944715;28;20826;-74
2022/05/28 11:48:00;;;;;;;4.80;1.70;;;32.70;1.00;;;;;;4968025;28;20187;-73
2022/05/28 11:53:34;;;;;;;7.07;1.70;;;29.00;1.00;;;;;;4947101;28;20206;-73
2022/05/28 11:56:12;;;;;;;4.13;1.65;;;27.50;1.00;;;;;;4966509;28;20202;-73
2022/05/28 11:59:02;;;;;;;5.60;1.90;;;26.70;1.00;;;;;;4972265;28;20732;-73
2022/05/28 12:01:34;;;;;;;3.33;1.40;;;26.40;1.00;;;;;;4970051;28;20186;-74
2022/05/28 12:04:00;;;;;;;3.87;1.50;;;26.00;1.00;;;;;;4975675;28;20305;-75
2022/05/28 12:06:31;;;;;;;3.47;1.63;;;25.30;1.00;;;;;;4960170;28;20708;-74
2022/05/28 12:09:02;;;;;;;5.83;1.63;;;25.00;1.00;;;;;;4963212;28;20663;-74
2022/05/28 12:12:09;;;;;;;6.03;1.80;;;24.60;1.00;;;;;;4964003;28;20446;-74
2022/05/28 12:14:39;;;;;;;4.87;1.97;;;24.40;1.00;;;;;;4957530;28;20460;-73
2022/05/28 12:17:08;;;;;;;3.80;1.70;;;25.70;1.00;;;;;;4976145;28;20469;-73
2022/05/28 12:19:43;;;;;;;5.43;1.90;;;28.20;1.00;;;;;;4970344;28;20432;-73
2022/05/28 12:22:35;;;;;;;5.47;1.93;;;28.20;1.00;;;;;;4964668;28;20716;-73
2022/05/28 12:25:15;;;;;;;4.77;1.70;;;26.90;1.00;;;;;;4969759;28;20626;-74
2022/05/28 12:27:47;;;;;;;4.57;1.80;;;26.10;1.00;;;;;;4980071;28;20175;-74
2022/05/28 12:30:25;;;;;;;3.80;1.70;;;26.80;1.00;;;;;;4971104;28;20631;-73
2022/05/28 12:32:51;;;;;;;4.00;1.93;;;28.30;1.00;;;;;;4975344;28;20574;-75
2022/05/28 12:35:20;;;;;;;5.63;1.90;;;30.00;1.00;;;;;;4964607;28;20434;-73
2022/05/28 12:38:03;;;;;;;5.75;1.83;;;30.40;1.00;;;;;;4963291;28;20375;-74
2022/05/28 12:40:55;;;;;;;4.07;1.70;;;29.10;1.00;;;;;;4964978;28;20183;-74
2022/05/28 12:43:26;;;;;;;3.40;1.60;;;27.40;1.00;;;;;;4964573;28;20361;-74
2022/05/28 12:45:54;;;;;;;4.73;1.80;;;26.20;1.00;;;;;;4974631;28;20186;-74
2022/05/28 12:48:21;;;;;;;5.03;2.00;;;25.40;1.00;;;;;;4967956;28;20198;-74
2022/05/28 12:51:24;;;;;;;5.37;1.80;;;24.90;1.00;;;;;;4966386;28;20180;-73
2022/05/28 12:54:03;;;;;;;7.97;1.60;;;24.70;1.00;;;;;;4966528;28;20629;-73
2022/05/28 12:56:48;;;;;;;3.80;1.73;;;24.50;1.00;;;;;;4966162;28;20461;-74
2022/05/28 12:59:29;;;;;;;3.37;1.60;;;24.30;1.00;;;;;;4964466;28;20430;-73
2022/05/28 13:02:15;;;;;;;3.87;1.80;;;24.70;1.00;;;;;;4970683;28;20452;-74
2022/05/28 13:04:55;;;;;;;4.60;1.50;;;25.80;1.00;;;;;;4976334;28;20453;-74
2022/05/28 13:07:45;;;;;;;7.17;1.80;;;28.60;1.00;;;;;;4976585;28;20209;-74
2022/05/28 13:10:16;;;;;;;5.28;1.50;;;30.00;1.00;;;;;;4972435;28;20258;-74
2022/05/28 13:12:47;;;;;;;6.07;1.63;;;31.30;1.00;;;;;;4980287;28;20190;-75
2022/05/28 13:15:16;;;;;;;3.80;1.60;;;32.60;1.00;;;;;;4976043;28;20278;-74
2022/05/28 13:18:06;;;;;;;3.90;1.55;;;31.80;1.00;;;;;;4967812;28;20674;-73
2022/05/28 13:21:09;;;;;;;4.13;1.58;;;29.50;1.00;;;;;;4962404;28;20176;-73